Time;durP1;ratioP1;P1;durP2;ratioP2;P2;SDS_P1;SDS_P2;PMS_P1;PMS_P2;Temp;Humidity;BMP_temperature;BMP_pressure;BME280_temperature;BME280_humidity;BME280_pressure;Samples;Min_cycle;Max_cycle;Signal;HPM_P1;HPM_P2
2023/04/30 00:01:53;;;;;;;21.38;11.52;;;;;;;8.28;100.00;102465.22;5038149;28;20051;-58
2023/04/30 00:04:18;;;;;;;19.75;12.15;;;;;;;8.28;100.00;102456.50;5046137;28;20122;-61
2023/04/30 00:06:43;;;;;;;19.02;12.52;;;;;;;8.33;100.00;102453.00;5044922;28;20035;-59
2023/04/30 00:09:09;;;;;;;18.33;12.43;;;;;;;8.34;100.00;102446.88;5014060;28;20084;-59
2023/04/30 00:11:34;;;;;;;18.80;12.40;;;;;;;8.22;100.00;102449.50;5006681;28;20034;-59
2023/04/30 00:13:59;;;;;;;24.48;12.52;;;;;;;8.20;100.00;102453.84;5006012;28;20037;-59
2023/04/30 00:16:25;;;;;;;19.30;12.13;;;;;;;8.22;100.00;102450.34;5005830;28;20050;-56
2023/04/30 00:18:51;;;;;;;23.13;12.80;;;;;;;8.25;100.00;102454.72;5006382;28;20022;-59
2023/04/30 00:21:16;;;;;;;20.00;12.60;;;;;;;8.21;100.00;102452.97;5019428;28;20142;-58
2023/04/30 00:23:41;;;;;;;21.65;12.23;;;;;;;8.27;100.00;102457.34;5025934;28;20022;-60
2023/04/30 00:26:07;;;;;;;21.58;12.70;;;;;;;8.22;100.00;102460.00;5025891;28;20033;-56
2023/04/30 00:28:32;;;;;;;20.33;12.38;;;;;;;8.26;100.00;102455.59;5026411;28;20037;-58
2023/04/30 00:30:57;;;;;;;21.25;12.57;;;;;;;8.22;100.00;102455.59;5025448;28;20026;-58
2023/04/30 00:33:23;;;;;;;26.45;12.18;;;;;;;8.18;100.00;102460.84;5024733;28;20037;-60
2023/04/30 00:35:48;;;;;;;24.27;12.93;;;;;;;8.14;100.00;102453.84;5026323;28;20034;-60
2023/04/30 00:38:13;;;;;;;21.30;12.80;;;;;;;8.12;100.00;102463.47;5025353;28;20095;-59
2023/04/30 00:40:40;;;;;;;23.73;14.52;;;;;;;8.08;100.00;102460.84;5027818;28;20021;-60
2023/04/30 00:43:05;;;;;;;24.40;13.60;;;;;;;8.09;100.00;102470.47;5025504;28;20029;-60
2023/04/30 00:45:31;;;;;;;21.23;14.98;;;;;;;8.06;100.00;102470.44;5027054;28;20379;-61
2023/04/30 00:47:56;;;;;;;29.23;15.80;;;;;;;8.03;100.00;102475.69;5027446;28;20040;-61
2023/04/30 00:50:22;;;;;;;29.33;13.82;;;;;;;8.04;100.00;102484.44;5028768;28;20737;-58
2023/04/30 00:52:48;;;;;;;24.50;13.43;;;;;;;8.00;100.00;102475.66;5028432;28;20021;-61
2023/04/30 00:55:13;;;;;;;25.27;14.25;;;;;;;8.01;100.00;102472.16;5028363;28;20361;-57
2023/04/30 00:57:39;;;;;;;26.85;14.48;;;;;;;7.99;100.00;102471.31;5029127;28;20057;-60
2023/04/30 01:00:08;;;;;;;24.98;15.18;;;;;;;8.02;100.00;102473.06;5028213;28;20026;-59
2023/04/30 01:02:34;;;;;;;26.88;15.55;;;;;;;7.92;100.00;102469.53;5028733;28;20105;-57
2023/04/30 01:05:01;;;;;;;25.48;14.05;;;;;;;7.92;100.00;102469.53;5027706;28;20026;-61
2023/04/30 01:07:27;;;;;;;26.05;15.40;;;;;;;7.87;100.00;102476.50;5111003;22;20514;-59
2023/04/30 01:09:53;;;;;;;20.65;14.40;;;;;;;7.86;100.00;102473.03;5047585;28;20025;-59
2023/04/30 01:12:37;;;;;;;26.35;15.38;;;;;;;7.80;100.00;102479.09;5067316;28;20066;-58
2023/04/30 01:15:14;;;;;;;24.70;14.90;;;;;;;7.80;100.00;102479.09;5067972;28;20059;-60
2023/04/30 01:18:03;;;;;;;22.40;13.52;;;;;;;7.79;100.00;102477.34;5048067;28;20104;-58
2023/04/30 01:20:29;;;;;;;29.10;14.20;;;;;;;7.88;100.00;102483.50;5049131;28;20024;-58
2023/04/30 01:23:33;;;;;;;22.70;15.15;;;;;;;7.83;100.00;102479.09;5047758;28;20044;-58
2023/04/30 01:26:17;;;;;;;23.80;13.93;;;;;;;7.81;100.00;102477.34;5048072;28;20040;-60
2023/04/30 01:28:43;;;;;;;26.48;14.18;;;;;;;7.81;100.00;102480.88;5029054;28;20033;-58
2023/04/30 01:31:18;;;;;;;27.55;16.02;;;;;;;7.83;100.00;102483.50;5027583;28;20022;-61
2023/04/30 01:33:43;;;;;;;27.45;15.95;;;;;;;7.81;100.00;102479.97;5028789;28;20044;-60
2023/04/30 01:36:36;;;;;;;26.70;15.43;;;;;;;7.77;100.00;102481.69;5010178;28;20479;-60
2023/04/30 01:39:22;;;;;;;31.38;16.17;;;;;;;7.77;100.00;102484.31;5042950;28;20061;-61
2023/04/30 01:42:01;;;;;;;29.52;16.50;;;;;;;7.74;100.00;102486.97;5026388;28;20036;-61
2023/04/30 01:44:48;;;;;;;31.15;15.80;;;;;;;7.81;100.00;102486.13;5036594;28;20063;-59
2023/04/30 01:47:29;;;;;;;25.73;15.65;;;;;;;7.78;100.00;102479.97;5066053;28;20036;-58
2023/04/30 01:50:10;;;;;;;27.98;16.95;;;;;;;7.72;100.00;102480.81;5062424;28;20027;-59
2023/04/30 01:52:39;;;;;;;35.08;16.60;;;;;;;7.69;100.00;102481.69;5068365;28;20032;-58
2023/04/30 01:55:05;;;;;;;26.00;16.05;;;;;;;7.66;100.00;102483.41;5064770;28;20070;-58
2023/04/30 01:57:37;;;;;;;26.40;16.65;;;;;;;7.65;100.00;102474.66;5048281;28;20021;-59
2023/04/30 02:00:03;;;;;;;28.20;16.40;;;;;;;7.66;100.00;102475.53;5046491;28;20054;-59
2023/04/30 02:02:29;;;;;;;31.75;17.23;;;;;;;7.61;100.00;102472.03;5046660;28;20029;-57
2023/04/30 02:04:54;;;;;;;25.25;17.00;;;;;;;7.59;100.00;102474.66;5046398;28;20024;-59
2023/04/30 02:07:36;;;;;;;26.23;15.48;;;;;;;7.61;100.00;102478.13;5046124;28;20077;-57
2023/04/30 02:10:02;;;;;;;28.13;16.27;;;;;;;7.64;100.00;102477.25;5046855;28;20025;-59
2023/04/30 02:12:28;;;;;;;27.80;16.13;;;;;;;7.56;100.00;102472.00;5045806;28;20064;-59
2023/04/30 02:14:54;;;;;;;35.85;17.63;;;;;;;7.45;100.00;102475.44;5047834;28;20025;-60
2023/04/30 02:17:20;;;;;;;27.13;17.10;;;;;;;7.41;100.00;102476.28;5046341;28;20032;-58
2023/04/30 02:19:45;;;;;;;25.92;16.83;;;;;;;7.38;100.00;102472.78;5048134;28;20065;-60
2023/04/30 02:22:10;;;;;;;31.77;18.55;;;;;;;7.35;100.00;102478.00;5046186;28;20112;-60
2023/04/30 02:24:35;;;;;;;33.67;18.85;;;;;;;7.30;100.00;102484.09;5047565;28;20615;-58
2023/04/30 02:27:01;;;;;;;31.50;18.10;;;;;;;7.31;100.00;102480.59;5047019;28;20067;-59
2023/04/30 02:29:26;;;;;;;30.73;18.50;;;;;;;7.38;100.00;102488.50;5047894;28;20060;-57
2023/04/30 02:31:52;;;;;;;27.48;16.38;;;;;;;7.36;100.00;102488.50;5048030;28;20532;-57
2023/04/30 02:34:17;;;;;;;32.15;17.83;;;;;;;7.35;100.00;102484.13;5067731;28;20028;-57
2023/04/30 02:36:42;;;;;;;35.78;18.02;;;;;;;7.36;100.00;102485.00;5067165;28;20029;-61
2023/04/30 02:39:08;;;;;;;35.03;18.17;;;;;;;7.44;100.00;102478.06;5067186;28;20040;-58
2023/04/30 02:41:33;;;;;;;32.30;18.50;;;;;;;7.41;100.00;102465.78;5067647;28;20021;-59
2023/04/30 02:43:58;;;;;;;30.88;18.77;;;;;;;7.43;100.00;102471.03;5050436;28;20052;-59
2023/04/30 02:46:24;;;;;;;33.25;20.00;;;;;;;7.42;100.00;102466.66;5045994;28;20036;-59
2023/04/30 02:48:49;;;;;;;31.00;17.88;;;;;;;7.43;100.00;102465.78;5047248;28;20021;-59
2023/04/30 02:51:14;;;;;;;40.38;17.95;;;;;;;7.38;100.00;102470.16;5046310;28;20032;-61
2023/04/30 02:53:40;;;;;;;28.45;17.50;;;;;;;7.36;100.00;102466.63;5064834;28;20025;-59
2023/04/30 02:56:05;;;;;;;30.10;17.52;;;;;;;7.38;100.00;102468.41;5067044;28;20151;-60
2023/04/30 02:58:31;;;;;;;35.00;18.35;;;;;;;7.35;100.00;102470.13;5049228;28;20071;-58
2023/04/30 03:00:56;;;;;;;28.38;16.85;;;;;;;7.32;100.00;102477.09;5045480;28;20025;-60
2023/04/30 03:03:21;;;;;;;34.10;17.75;;;;;;;7.26;100.00;102470.94;5044820;28;20082;-59
2023/04/30 03:05:47;;;;;;;36.38;17.92;;;;;;;7.21;100.00;102481.41;5047426;28;20442;-60
2023/04/30 03:08:12;;;;;;;41.08;19.10;;;;;;;7.14;100.00;102477.00;5046308;28;20045;-58
2023/04/30 03:10:38;;;;;;;29.08;17.25;;;;;;;7.16;100.00;102476.13;5047061;28;20422;-58
2023/04/30 03:13:03;;;;;;;38.22;20.40;;;;;;;7.15;100.00;102474.38;5040114;28;20075;-58
2023/04/30 03:15:31;;;;;;;48.20;21.13;;;;;;;7.08;100.00;102478.69;5027069;28;20029;-58
2023/04/30 03:17:57;;;;;;;30.33;19.00;;;;;;;7.20;100.00;102477.03;5036686;28;20057;-58
2023/04/30 03:20:22;;;;;;;28.42;17.25;;;;;;;7.24;100.00;102483.16;5066480;28;20028;-60
2023/04/30 03:22:47;;;;;;;32.30;17.85;;;;;;;7.23;100.00;102487.56;5063890;28;20051;-61
2023/04/30 03:25:13;;;;;;;33.67;18.55;;;;;;;7.25;100.00;102479.69;5046796;28;20099;-59
2023/04/30 03:27:38;;;;;;;34.47;17.67;;;;;;;7.18;100.00;102478.75;5046869;28;20063;-59
2023/04/30 03:30:04;;;;;;;35.33;17.98;;;;;;;7.21;100.00;102478.78;5026923;28;20116;-61
2023/04/30 03:32:30;;;;;;;32.83;17.58;;;;;;;7.20;100.00;102470.03;5027555;28;20084;-59
2023/04/30 03:34:55;;;;;;;31.30;17.38;;;;;;;7.16;100.00;102472.63;5043820;28;20013;-60
2023/04/30 03:37:20;;;;;;;29.45;16.33;;;;;;;7.14;100.00;102463.88;5047082;28;20033;-60
2023/04/30 03:39:46;;;;;;;30.75;16.60;;;;;;;7.07;100.00;102466.47;5054934;28;20021;-57
2023/04/30 03:42:11;;;;;;;32.55;16.83;;;;;;;7.03;100.00;102469.03;5067055;28;20119;-57
2023/04/30 03:44:37;;;;;;;38.13;17.63;;;;;;;7.07;100.00;102466.47;5067090;28;20107;-57
2023/04/30 03:47:03;;;;;;;30.20;17.17;;;;;;;7.05;100.00;102478.66;5066009;28;20071;-59
2023/04/30 03:49:28;;;;;;;29.73;17.42;;;;;;;7.00;100.00;102464.66;5066409;28;20052;-56
2023/04/30 03:51:54;;;;;;;28.50;17.50;;;;;;;6.97;100.00;102469.88;5067305;28;20028;-62
2023/04/30 03:54:19;;;;;;;37.35;17.10;;;;;;;6.99;100.00;102467.28;5063062;28;20032;-59
2023/04/30 03:56:44;;;;;;;36.42;18.13;;;;;;;7.06;100.00;102474.31;5058057;28;20043;-57
2023/04/30 03:59:10;;;;;;;34.05;17.05;;;;;;;6.99;100.00;102467.28;5046443;28;20072;-59
2023/04/30 04:01:35;;;;;;;37.78;18.30;;;;;;;7.00;100.00;102469.91;5045803;28;20033;-61
2023/04/30 04:04:01;;;;;;;31.35;17.10;;;;;;;6.99;100.00;102457.69;5044348;28;20025;-60
2023/04/30 04:06:26;;;;;;;29.33;17.58;;;;;;;7.03;100.00;102459.44;5046656;28;20044;-56
2023/04/30 04:08:51;;;;;;;31.05;16.90;;;;;;;7.04;100.00;102455.06;5047192;28;20044;-56
2023/04/30 04:11:17;;;;;;;36.47;19.08;;;;;;;7.14;100.00;102454.28;5046865;28;20029;-62
2023/04/30 04:13:42;;;;;;;32.92;17.50;;;;;;;7.11;100.00;102443.78;5047620;28;20064;-60
2023/04/30 04:16:08;;;;;;;35.67;18.05;;;;;;;7.15;100.00;102453.41;5046088;28;20064;-61
2023/04/30 04:18:33;;;;;;;34.88;17.65;;;;;;;7.19;100.00;102454.28;5046891;28;20052;-59
2023/04/30 04:21:00;;;;;;;32.40;17.67;;;;;;;7.27;100.00;102454.34;5051448;28;20063;-61
2023/04/30 04:23:25;;;;;;;37.47;18.30;;;;;;;7.30;100.00;102457.88;5051339;28;20025;-59
2023/04/30 04:25:51;;;;;;;28.38;16.52;;;;;;;7.36;100.00;102464.91;5037066;28;20025;-61
2023/04/30 04:28:16;;;;;;;34.15;17.77;;;;;;;7.30;100.00;102452.63;5030539;28;20031;-66
2023/04/30 04:30:42;;;;;;;30.38;15.65;;;;;;;7.29;100.00;102453.47;5048718;28;20108;-62
2023/04/30 04:33:07;;;;;;;27.00;15.45;;;;;;;7.33;100.00;102460.53;5049988;28;20033;-58
2023/04/30 04:35:33;;;;;;;27.73;15.38;;;;;;;7.39;100.00;102453.53;5049768;28;20032;-56
2023/04/30 04:37:59;;;;;;;32.00;15.80;;;;;;;7.41;100.00;102457.91;5050380;28;20035;-59
2023/04/30 04:40:24;;;;;;;25.40;14.13;;;;;;;7.53;100.00;102459.72;5043867;28;20018;-59
2023/04/30 04:42:53;;;;;;;25.05;14.60;;;;;;;7.53;100.00;102464.13;5030034;28;20029;-59
2023/04/30 04:45:19;;;;;;;24.80;13.75;;;;;;;7.59;100.00;102472.88;5048696;28;20110;-57
2023/04/30 04:47:45;;;;;;;26.38;14.25;;;;;;;7.56;100.00;102470.25;5048921;28;20119;-58
2023/04/30 04:50:11;;;;;;;23.35;14.18;;;;;;;7.65;100.00;102466.78;5049374;28;20083;-60
2023/04/30 04:52:36;;;;;;;21.98;13.27;;;;;;;7.80;100.00;102476.47;5049597;28;20048;-58
2023/04/30 04:55:02;;;;;;;22.58;13.18;;;;;;;7.81;100.00;102474.72;5048854;28;20023;-61
2023/04/30 04:57:27;;;;;;;22.45;13.38;;;;;;;7.85;100.00;102471.25;5050133;28;20033;-60
2023/04/30 04:59:53;;;;;;;23.80;12.65;;;;;;;7.87;100.00;102479.13;5047532;28;20025;-60
2023/04/30 05:02:18;;;;;;;21.30;13.32;;;;;;;7.96;100.00;102477.44;5049133;28;20025;-60
2023/04/30 05:04:46;;;;;;;19.23;11.77;;;;;;;8.01;100.00;102469.53;5049217;28;20053;-57
2023/04/30 05:07:11;;;;;;;19.20;11.73;;;;;;;8.02;100.00;102466.06;5048930;28;20557;-58
2023/04/30 05:09:36;;;;;;;19.27;11.50;;;;;;;8.11;100.00;102470.47;5035682;28;20029;-59
2023/04/30 05:12:02;;;;;;;19.35;10.48;;;;;;;8.15;100.00;102473.94;5048296;28;20429;-60
2023/04/30 05:14:28;;;;;;;17.65;11.38;;;;;;;8.16;100.00;102483.59;5048148;28;20048;-57
2023/04/30 05:16:53;;;;;;;18.65;10.95;;;;;;;8.30;100.00;102484.50;5048830;28;20031;-56
2023/04/30 05:19:18;;;;;;;17.75;10.82;;;;;;;8.25;100.00;102483.59;5048241;28;20063;-62
2023/04/30 05:21:44;;;;;;;18.70;11.00;;;;;;;8.15;100.00;102474.84;5049276;28;20049;-55
2023/04/30 05:24:09;;;;;;;17.40;10.40;;;;;;;8.23;100.00;102480.13;5048377;28;20467;-60
2023/04/30 05:26:34;;;;;;;18.95;10.23;;;;;;;8.38;100.00;102486.28;5047900;28;20468;-59
2023/04/30 05:29:00;;;;;;;16.05;10.05;;;;;;;8.50;100.00;102477.53;5049018;28;20021;-60
2023/04/30 05:31:25;;;;;;;16.02;9.90;;;;;;;8.58;100.00;102487.22;5047670;28;20025;-60
2023/04/30 05:33:50;;;;;;;14.75;9.18;;;;;;;8.65;100.00;102479.34;5047861;28;20025;-59
2023/04/30 05:36:16;;;;;;;15.05;9.23;;;;;;;8.75;100.00;102472.31;5048512;28;20429;-60
2023/04/30 05:38:41;;;;;;;17.00;8.98;;;;;;;8.71;100.00;102479.34;5046842;28;20028;-58
2023/04/30 05:41:09;;;;;;;15.82;8.82;;;;;;;8.80;100.00;102475.84;5048396;28;20061;-58
2023/04/30 05:43:34;;;;;;;13.10;8.68;;;;;;;8.92;100.00;102482.84;5049088;28;20025;-59
2023/04/30 05:45:59;;;;;;;13.13;8.20;;;;;;;8.96;100.00;102479.31;5048788;28;20033;-60
2023/04/30 05:48:26;;;;;;;10.60;8.07;;;;;;;8.97;100.00;102481.06;5048473;28;20040;-58
2023/04/30 05:50:51;;;;;;;13.15;7.50;;;;;;;8.96;100.00;102489.84;5048673;28;20045;-60
2023/04/30 05:53:16;;;;;;;12.55;7.82;;;;;;;9.04;100.00;102482.84;5038832;28;20021;-58
2023/04/30 05:55:42;;;;;;;13.73;7.47;;;;;;;9.11;100.00;102483.69;5043708;28;20028;-56
2023/04/30 05:58:07;;;;;;;10.73;7.45;;;;;;;9.18;100.00;102484.59;5048306;28;20029;-61
2023/04/30 06:00:32;;;;;;;9.77;7.55;;;;;;;9.05;100.00;102475.81;5047660;28;20379;-57
2023/04/30 06:02:58;;;;;;;11.27;6.70;;;;;;;9.28;100.00;102474.91;5044506;28;20030;-57
2023/04/30 06:05:23;;;;;;;12.10;7.00;;;;;;;9.39;100.00;102482.78;5038538;28;20029;-59
2023/04/30 06:07:48;;;;;;;8.85;6.40;;;;;;;9.51;100.00;102476.63;5047904;28;20064;-57
2023/04/30 06:10:14;;;;;;;9.05;6.25;;;;;;;9.56;100.00;102491.50;5047316;28;20410;-57
2023/04/30 06:12:39;;;;;;;9.00;6.57;;;;;;;9.55;100.00;102478.34;5047539;28;20496;-60
2023/04/30 06:15:05;;;;;;;11.43;6.18;;;;;;;9.77;100.00;102475.63;5046632;28;20100;-59
2023/04/30 06:17:31;;;;;;;6.97;5.90;;;;;;;9.75;100.00;102488.78;5047261;28;20036;-58
2023/04/30 06:19:59;;;;;;;10.57;5.60;;;;;;;9.77;100.00;102488.78;5048142;28;20025;-58
2023/04/30 06:22:25;;;;;;;9.47;5.70;;;;;;;9.72;100.00;102486.16;5048126;28;20032;-59
2023/04/30 06:24:50;;;;;;;7.13;5.18;;;;;;;9.85;100.00;102489.66;5048239;28;20025;-59
2023/04/30 06:27:15;;;;;;;13.90;6.65;;;;;;;10.04;100.00;102487.81;5045965;28;20032;-56
2023/04/30 06:29:40;;;;;;;7.88;5.55;;;;;;;10.08;100.00;102492.16;5047451;28;20028;-54
2023/04/30 06:32:06;;;;;;;10.65;5.85;;;;;;;10.13;100.00;102486.00;5048019;28;20029;-57
2023/04/30 06:34:31;;;;;;;6.45;5.32;;;;;;;10.25;100.00;102491.19;5046672;28;20025;-55
2023/04/30 06:36:57;;;;;;;8.80;6.03;;;;;;;10.17;100.00;102493.88;5046739;28;20029;-57
2023/04/30 06:39:22;;;;;;;11.52;5.75;;;;;;;10.11;100.00;102499.16;5046488;28;20021;-58
2023/04/30 06:41:47;;;;;;;9.20;6.20;;;;;;;9.96;100.00;102494.84;5043954;28;20467;-56
2023/04/30 06:44:13;;;;;;;6.75;5.57;;;;;;;10.11;100.00;102494.78;5046026;28;20033;-60
2023/04/30 06:46:39;;;;;;;9.68;5.53;;;;;;;10.21;100.00;102494.75;5045736;28;20025;-60
2023/04/30 06:49:05;;;;;;;8.25;5.88;;;;;;;10.32;100.00;102503.44;5045579;28;20017;-59
2023/04/30 06:51:30;;;;;;;9.00;5.97;;;;;;;10.35;100.00;102497.28;5046255;28;20028;-61
2023/04/30 06:53:55;;;;;;;9.52;6.20;;;;;;;10.44;100.00;102502.50;5046661;28;20082;-59
2023/04/30 06:56:21;;;;;;;10.57;6.80;;;;;;;10.53;100.00;102501.59;5045559;28;20040;-58
2023/04/30 06:58:46;;;;;;;11.35;5.75;;;;;;;10.59;100.00;102503.28;5046036;28;20017;-57
2023/04/30 07:01:12;;;;;;;9.98;6.22;;;;;;;10.59;100.00;102498.03;5045272;28;20478;-58
2023/04/30 07:03:37;;;;;;;9.98;6.00;;;;;;;10.60;100.00;102503.28;5045668;28;20023;-58
2023/04/30 07:06:03;;;;;;;10.98;6.22;;;;;;;10.69;100.00;102501.47;5045519;28;20024;-57
2023/04/30 07:08:28;;;;;;;10.27;6.90;;;;;;;10.73;100.00;102505.84;5046423;28;20049;-59
2023/04/30 07:10:54;;;;;;;7.55;6.22;;;;;;;10.61;100.00;102502.41;5045350;28;20112;-58
2023/04/30 07:13:19;;;;;;;10.43;6.03;;;;;;;10.86;100.00;102498.69;5056053;28;20033;-60
2023/04/30 07:15:44;;;;;;;9.10;6.35;;;;;;;10.97;100.00;102498.59;5047666;28;20032;-59
2023/04/30 07:18:10;;;;;;;11.20;6.38;;;;;;;10.89;100.00;102493.41;5046199;28;20040;-56
2023/04/30 07:20:35;;;;;;;12.10;6.57;;;;;;;10.83;100.00;102501.34;5044902;28;20428;-58
2023/04/30 07:23:01;;;;;;;11.43;6.97;;;;;;;10.79;100.00;102505.78;5045119;28;20039;-61
2023/04/30 07:25:26;;;;;;;7.18;6.18;;;;;;;10.96;100.00;102503.00;5045922;28;20404;-56
2023/04/30 07:27:52;;;;;;;11.32;6.28;;;;;;;11.14;100.00;102511.66;5035792;28;20044;-57
2023/04/30 07:30:17;;;;;;;9.93;6.20;;;;;;;11.18;100.00;102509.84;5034554;28;20515;-57
2023/04/30 07:32:43;;;;;;;7.93;6.57;;;;;;;11.41;100.00;102514.03;5034779;28;20395;-61
2023/04/30 07:35:08;;;;;;;8.48;6.40;;;;;;;11.47;100.00;102508.69;5036587;28;20340;-55
2023/04/30 07:37:33;;;;;;;10.10;6.97;;;;;;;11.57;100.00;102506.81;5034713;28;20037;-58
2023/04/30 07:39:59;;;;;;;9.73;6.00;;;;;;;11.60;100.00;102507.66;5037289;28;20060;-59
2023/04/30 07:42:25;;;;;;;10.23;6.10;;;;;;;11.65;100.00;102506.72;5044155;28;20028;-59
2023/04/30 07:44:51;;;;;;;10.82;6.00;;;;;;;11.61;100.00;102505.88;5040018;28;20105;-57
2023/04/30 07:47:17;;;;;;;10.93;5.55;;;;;;;11.54;100.00;102510.38;5035519;28;20276;-58
2023/04/30 07:49:42;;;;;;;10.57;5.97;;;;;;;11.67;100.00;102510.22;5033952;28;20411;-59
2023/04/30 07:52:09;;;;;;;9.90;6.05;;;;;;;11.76;100.00;102504.81;5042377;28;20021;-59
2023/04/30 07:54:37;;;;;;;9.05;5.35;;;;;;;11.93;100.00;102503.75;5044479;28;20437;-59
2023/04/30 07:57:03;;;;;;;8.20;5.88;;;;;;;12.07;100.00;102504.47;5044549;28;20025;-56
2023/04/30 07:59:28;;;;;;;11.88;6.10;;;;;;;12.16;100.00;102503.47;5049937;28;20356;-56
2023/04/30 08:01:54;;;;;;;12.77;5.95;;;;;;;12.16;100.00;102499.97;5048594;28;20033;-61
2023/04/30 08:04:19;;;;;;;8.98;5.47;;;;;;;12.33;100.00;102502.34;5049417;28;20122;-59
2023/04/30 08:06:44;;;;;;;9.82;5.88;;;;;;;12.22;100.00;102503.38;5049038;28;20024;-59
2023/04/30 08:09:10;;;;;;;12.82;5.78;;;;;;;12.51;100.00;102506.50;5050295;28;20025;-60
2023/04/30 08:11:35;;;;;;;7.82;5.82;;;;;;;12.37;100.00;102510.22;5050194;28;20028;-58
2023/04/30 08:14:00;;;;;;;9.15;5.78;;;;;;;12.45;100.00;102501.28;5047397;28;20032;-60
2023/04/30 08:16:26;;;;;;;10.40;5.50;;;;;;;12.41;100.00;102511.06;5038644;28;20033;-59
2023/04/30 08:18:51;;;;;;;9.07;5.97;;;;;;;12.51;100.00;102511.78;5039256;28;20013;-58
2023/04/30 08:21:17;;;;;;;9.70;5.75;;;;;;;12.48;100.00;102506.53;5037447;28;20027;-60
2023/04/30 08:23:42;;;;;;;10.07;5.38;;;;;;;12.58;100.00;102502.84;5041933;28;20021;-59
2023/04/30 08:26:08;;;;;;;8.65;5.90;;;;;;;12.53;100.00;102504.72;5047329;28;20047;-58
2023/04/30 08:28:33;;;;;;;9.18;6.00;;;;;;;12.62;100.00;102506.34;5046664;28;20430;-59
2023/04/30 08:30:59;;;;;;;7.35;5.65;;;;;;;12.76;100.00;102506.09;5045776;28;20028;-59
2023/04/30 08:33:25;;;;;;;8.02;6.60;;;;;;;12.68;100.00;102502.72;5038159;28;20234;-56
2023/04/30 08:35:50;;;;;;;8.45;5.50;;;;;;;12.76;100.00;102499.03;5048220;28;20029;-57
2023/04/30 08:38:17;;;;;;;9.65;6.03;;;;;;;12.67;100.00;102499.19;5047550;28;20758;-58
2023/04/30 08:40:48;;;;;;;8.30;5.63;;;;;;;12.93;100.00;102505.81;5048277;28;20028;-59
2023/04/30 08:43:13;;;;;;;10.45;5.20;;;;;;;13.24;100.00;102504.38;5048070;28;20106;-55
2023/04/30 08:45:40;;;;;;;6.65;5.30;;;;;;;13.25;100.00;102493.78;5046043;28;20044;-57
2023/04/30 08:48:10;;;;;;;8.98;6.00;;;;;;;13.37;100.00;102505.91;5047614;28;20421;-58
2023/04/30 08:50:35;;;;;;;8.13;5.55;;;;;;;13.25;100.00;102498.22;5047959;28;20025;-56
2023/04/30 08:53:01;;;;;;;9.15;5.57;;;;;;;13.44;100.00;102497.84;5047613;28;20087;-58
2023/04/30 08:55:27;;;;;;;7.55;5.25;;;;;;;13.43;100.00;102497.00;5042377;28;20024;-60
2023/04/30 08:57:53;;;;;;;7.05;5.53;;;;;;;13.61;100.00;102497.56;5042812;28;20025;-59
2023/04/30 09:00:19;;;;;;;6.60;5.65;;;;;;;13.72;100.00;102499.97;5035968;28;20083;-60
2023/04/30 09:02:45;;;;;;;6.82;4.95;;;;;;;13.69;100.00;102497.41;5049464;28;20056;-59
2023/04/30 09:05:13;;;;;;;7.90;5.47;;;;;;;13.82;100.00;102501.53;5044435;28;20079;-59
2023/04/30 09:07:41;;;;;;;8.95;5.38;;;;;;;13.74;100.00;102495.53;5029494;28;20045;-62
2023/04/30 09:10:20;;;;;;;6.30;5.68;;;;;;;13.61;100.00;102495.78;5029199;28;20104;-58
2023/04/30 09:13:05;;;;;;;10.23;6.68;;;;;;;13.35;100.00;102494.50;5030466;28;20071;-59
2023/04/30 09:15:31;;;;;;;8.10;6.38;;;;;;;13.14;100.00;102496.66;5028428;28;20029;-60
2023/04/30 09:18:16;;;;;;;9.50;6.30;;;;;;;13.42;100.00;102499.69;5029063;28;20267;-59
2023/04/30 09:20:55;;;;;;;6.47;5.57;;;;;;;13.65;100.00;102493.94;5027970;28;20021;-58
2023/04/30 09:23:21;;;;;;;9.55;6.13;;;;;;;13.68;100.00;102495.66;5027696;28;20048;-61
2023/04/30 09:25:46;;;;;;;9.93;6.00;;;;;;;13.97;100.00;102492.38;5027778;28;20442;-59
2023/04/30 09:28:12;;;;;;;10.70;5.95;;;;;;;13.85;100.00;102495.31;5026167;28;20112;-59
2023/04/30 09:30:41;;;;;;;8.15;5.72;;;;;;;14.13;100.00;102486.75;5025656;28;20403;-58
2023/04/30 09:33:07;;;;;;;8.82;6.22;;;;;;;14.03;100.00;102494.91;5025538;28;20017;-54
2023/04/30 09:35:40;;;;;;;8.30;5.90;;;;;;;14.23;100.00;102487.41;5026728;28;20080;-58
2023/04/30 09:38:06;;;;;;;8.20;5.57;;;;;;;14.09;100.00;102482.44;5025501;28;20036;-56
2023/04/30 09:40:33;;;;;;;7.93;5.65;;;;;;;14.09;100.00;102488.59;5026065;28;20018;-60
2023/04/30 09:42:59;;;;;;;8.50;6.20;;;;;;;14.35;100.00;102487.13;5026971;28;20025;-60
2023/04/30 09:45:24;;;;;;;9.38;5.78;;;;;;;14.21;100.00;102484.78;5052130;28;20035;-58
2023/04/30 09:47:51;;;;;;;10.25;5.90;;;;;;;13.84;100.00;102491.78;5065797;28;20496;-57
2023/04/30 09:50:17;;;;;;;9.45;6.30;;;;;;;14.11;100.00;102484.13;5063245;28;20107;-57
2023/04/30 09:52:53;;;;;;;7.65;5.72;;;;;;;14.43;100.00;102484.28;5026818;28;20556;-57
2023/04/30 09:55:20;;;;;;;9.27;6.40;;;;;;;14.65;100.00;102479.34;5038629;28;20471;-59
2023/04/30 09:57:46;;;;;;;6.70;5.57;;;;;;;14.59;100.00;102478.59;5043856;28;20215;-57
2023/04/30 10:00:13;;;;;;;7.88;5.47;;;;;;;14.62;100.00;102479.41;5043555;28;20036;-57
2023/04/30 10:02:38;;;;;;;6.57;5.00;;;;;;;14.66;100.00;102475.75;5025985;28;20387;-59
2023/04/30 10:05:04;;;;;;;6.13;5.15;;;;;;;15.01;100.00;102480.22;5041412;28;20033;-59
2023/04/30 10:07:34;;;;;;;7.05;6.20;;;;;;;14.88;100.00;102479.69;5065682;28;20067;-60
2023/04/30 10:10:07;;;;;;;8.30;4.95;;;;;;;15.08;100.00;102476.50;5064804;28;20214;-57
2023/04/30 10:12:43;;;;;;;11.65;6.28;;;;;;;14.99;100.00;102466.16;5065768;28;20473;-57
2023/04/30 10:15:16;;;;;;;8.75;5.45;;;;;;;15.22;100.00;102468.16;5064543;28;20023;-59
2023/04/30 10:17:46;;;;;;;5.97;5.38;;;;;;;15.43;100.00;102462.28;5058389;28;20548;-58
2023/04/30 10:20:12;;;;;;;6.85;5.22;;;;;;;15.80;100.00;102463.88;5025556;28;20045;-59
2023/04/30 10:22:37;;;;;;;7.97;4.70;;;;;;;15.67;99.98;102463.38;5041281;28;20140;-59
2023/04/30 10:25:03;;;;;;;5.60;4.28;;;;;;;15.49;100.00;102467.44;5034730;28;20478;-56
2023/04/30 10:27:29;;;;;;;6.18;4.78;;;;;;;15.85;100.00;102459.28;5046828;28;20462;-56
2023/04/30 10:29:54;;;;;;;7.88;4.82;;;;;;;15.59;98.76;102463.59;5046401;28;20021;-56
2023/04/30 10:32:21;;;;;;;6.28;4.90;;;;;;;15.18;99.67;102460.31;5046102;28;20048;-59
2023/04/30 10:35:05;;;;;;;5.25;4.75;;;;;;;15.54;100.00;102447.78;5046386;28;20025;-59
2023/04/30 10:37:36;;;;;;;6.10;4.55;;;;;;;15.65;99.30;102455.44;5045591;28;20021;-62
2023/04/30 10:40:04;;;;;;;5.72;4.90;;;;;;;15.75;99.63;102439.22;5046486;28;20040;-58
2023/04/30 10:42:29;;;;;;;6.43;4.80;;;;;;;15.61;98.85;102448.47;5044896;28;20028;-57
2023/04/30 10:44:55;;;;;;;8.05;4.53;;;;;;;15.77;96.12;102443.56;5045386;28;20124;-57
2023/04/30 10:47:27;;;;;;;8.75;4.50;;;;;;;15.94;97.90;102438.66;5045836;28;20064;-59
2023/04/30 10:50:04;;;;;;;8.15;4.70;;;;;;;16.15;100.00;102438.03;5044878;28;20020;-59
2023/04/30 10:52:29;;;;;;;6.40;5.00;;;;;;;16.48;98.91;102433.41;5046581;28;20021;-57
2023/04/30 10:54:55;;;;;;;4.97;4.45;;;;;;;16.51;98.28;102428.00;5045531;28;20029;-58
2023/04/30 10:57:21;;;;;;;6.07;4.40;;;;;;;16.73;95.45;102424.59;5045683;28;20539;-59
2023/04/30 10:59:51;;;;;;;6.38;4.68;;;;;;;16.81;94.96;102419.88;5045495;28;20025;-58
2023/04/30 11:02:16;;;;;;;4.65;4.10;;;;;;;16.67;95.72;102413.25;5045855;28;20065;-55
2023/04/30 11:05:06;;;;;;;7.07;4.50;;;;;;;17.08;94.09;102406.53;5045544;28;20079;-58
2023/04/30 11:07:32;;;;;;;5.55;4.15;;;;;;;17.00;95.21;102413.88;5045830;28;20048;-60
2023/04/30 11:09:59;;;;;;;6.72;4.38;;;;;;;16.75;96.43;102404.13;5046158;28;20028;-59
2023/04/30 11:12:29;;;;;;;7.18;4.10;;;;;;;17.13;93.86;102404.56;5045647;28;20075;-60
2023/04/30 11:15:06;;;;;;;3.53;3.22;;;;;;;17.23;89.07;102399.78;5044895;28;20029;-58